createdAt,value
2023-05-21T00:00:51.636Z,96726.59
2023-05-21T00:03:18.498Z,96744.91
2023-05-21T00:05:47.309Z,96746.09
2023-05-21T00:08:14.290Z,96755.63
2023-05-21T00:10:40.988Z,96712.69
2023-05-21T00:13:09.113Z,96625.25
2023-05-21T00:15:36.312Z,96750.84
2023-05-21T00:18:03.702Z,96741.69
2023-05-21T00:20:32.386Z,96655.44
2023-05-21T00:22:59.846Z,96736.47
2023-05-21T00:25:26.452Z,96695.59
2023-05-21T00:27:54.428Z,96724.16
2023-05-21T00:30:21.151Z,96730.19
2023-05-21T00:32:47.886Z,96734.84
2023-05-21T00:35:14.858Z,96720.56
2023-05-21T00:37:41.511Z,96626.81
2023-05-21T00:40:09.306Z,96737.28
2023-05-21T00:42:39.528Z,96684.00
2023-05-21T00:45:07.664Z,96704.66
2023-05-21T00:47:35.231Z,96715.00
2023-05-21T00:50:04.050Z,96711.03
2023-05-21T00:52:31.144Z,96709.06
2023-05-21T00:54:57.943Z,96703.88
2023-05-21T00:57:27.325Z,96696.31
2023-05-21T00:59:54.289Z,96695.94
2023-05-21T01:02:24.112Z,96701.53
2023-05-21T01:04:54.651Z,96705.13
2023-05-21T01:07:21.941Z,96688.38
2023-05-21T01:09:48.768Z,96691.59
2023-05-21T01:12:17.755Z,96680.84
2023-05-21T01:14:45.213Z,96686.81
2023-05-21T01:17:13.066Z,96684.81
2023-05-21T01:19:39.980Z,96683.22
2023-05-21T01:22:07.935Z,96681.63
2023-05-21T01:24:35.048Z,96675.25
2023-05-21T01:27:03.257Z,96666.88
2023-05-21T01:29:29.932Z,96633.09
2023-05-21T01:32:16.445Z,96682.38
2023-05-21T01:34:56.050Z,96678.41
2023-05-21T01:37:48.902Z,96643.88
2023-05-21T01:40:21.675Z,96679.25
2023-05-21T01:42:48.620Z,96626.81
2023-05-21T01:45:16.750Z,96672.06
2023-05-21T01:47:47.807Z,96668.88
2023-05-21T01:50:15.800Z,96663.25
2023-05-21T01:52:51.442Z,96660.41
2023-05-21T01:55:18.649Z,96662.31
2023-05-21T01:57:45.594Z,96664.66
2023-05-21T02:00:13.726Z,96655.56
2023-05-21T02:02:40.396Z,96665.88
2023-05-21T02:05:08.787Z,96616.97
2023-05-21T02:07:35.498Z,96664.69
2023-05-21T02:10:02.099Z,96668.69
2023-05-21T02:12:29.543Z,96619.50
2023-05-21T02:14:56.438Z,96633.81
2023-05-21T02:17:24.411Z,96678.22
2023-05-21T02:19:50.994Z,96674.59
2023-05-21T02:22:17.884Z,96686.88
2023-05-21T02:24:44.598Z,96680.47
2023-05-21T02:27:13.510Z,96674.72
2023-05-21T02:29:40.095Z,96616.00
2023-05-21T02:32:07.057Z,96680.19
2023-05-21T02:34:35.049Z,96654.69
2023-05-21T02:37:01.834Z,96668.97
2023-05-21T02:39:28.562Z,96671.84
2023-05-21T02:41:55.152Z,96605.03
2023-05-21T02:44:24.070Z,96654.75
2023-05-21T02:46:50.856Z,96615.00
2023-05-21T02:49:17.498Z,96619.47
2023-05-21T02:51:44.085Z,96671.78
2023-05-21T02:54:10.690Z,96663.63
2023-05-21T02:56:37.271Z,96660.34
2023-05-21T02:59:03.963Z,96667.13
2023-05-21T03:01:30.585Z,96657.19
2023-05-21T03:03:57.259Z,96656.25
2023-05-21T03:06:23.875Z,96665.78
2023-05-21T03:08:50.532Z,96589.63
2023-05-21T03:11:19.162Z,96659.69
2023-05-21T03:13:45.957Z,96661.91
2023-05-21T03:16:12.758Z,96659.53
2023-05-21T03:18:39.422Z,96666.38
2023-05-21T03:21:06.055Z,96663.16
2023-05-21T03:23:32.731Z,96665.53
2023-05-21T03:25:59.364Z,96672.84
2023-05-21T03:28:26.011Z,96625.19
2023-05-21T03:30:53.394Z,96675.09
2023-05-21T03:33:20.083Z,96667.50
2023-05-21T03:35:46.692Z,96661.38
2023-05-21T03:38:13.363Z,96642.31
2023-05-21T03:40:40.040Z,96588.09
2023-05-21T03:43:06.962Z,96661.25
2023-05-21T03:45:33.744Z,96681.69
2023-05-21T03:48:02.015Z,96670.13
2023-05-21T03:50:28.770Z,96669.97
2023-05-21T03:52:55.477Z,96544.72
2023-05-21T03:55:22.414Z,96656.56
2023-05-21T03:57:49.014Z,96589.94
2023-05-21T04:00:15.958Z,96665.09
2023-05-21T04:02:42.738Z,96661.69
2023-05-21T04:05:09.676Z,96647.44
2023-05-21T04:07:38.315Z,96655.03
2023-05-21T04:10:05.413Z,96665.59
2023-05-21T04:12:32.156Z,96672.72
2023-05-21T04:14:58.854Z,96672.66
2023-05-21T04:17:27.100Z,96579.03
2023-05-21T04:19:54.418Z,96669.31
2023-05-21T04:22:21.741Z,96669.69
2023-05-21T04:24:48.877Z,96675.47
2023-05-21T04:27:16.823Z,96670.84
2023-05-21T04:29:43.485Z,96680.00
2023-05-21T04:32:10.142Z,96672.19
2023-05-21T04:34:36.763Z,96640.13
2023-05-21T04:37:03.492Z,96674.63
2023-05-21T04:39:31.609Z,96679.38
2023-05-21T04:41:58.194Z,96667.38
2023-05-21T04:44:24.858Z,96622.09
2023-05-21T04:46:52.742Z,96670.41
2023-05-21T04:49:21.018Z,96676.94
2023-05-21T04:51:49.404Z,96671.19
2023-05-21T04:54:16.026Z,96583.63
2023-05-21T04:56:42.657Z,96660.69
2023-05-21T04:59:09.267Z,96668.63
2023-05-21T05:01:38.464Z,96721.28
2023-05-21T05:04:06.126Z,96682.63
2023-05-21T05:06:32.900Z,96657.16
2023-05-21T05:08:59.497Z,96677.06
2023-05-21T05:11:26.665Z,96644.28
2023-05-21T05:13:53.365Z,96682.25
2023-05-21T05:16:25.112Z,96681.75
2023-05-21T05:18:52.791Z,96684.41
2023-05-21T05:21:21.816Z,96646.78
2023-05-21T05:23:48.485Z,96682.59
2023-05-21T05:26:15.127Z,96683.97
2023-05-21T05:28:41.850Z,96690.78
2023-05-21T05:31:08.973Z,96689.91
2023-05-21T05:33:35.737Z,96688.09
2023-05-21T05:36:02.426Z,96661.41
2023-05-21T05:38:29.005Z,96693.78
2023-05-21T05:40:55.739Z,96700.44
2023-05-21T05:43:22.332Z,96669.53
2023-05-21T05:45:48.972Z,96642.59
2023-05-21T05:48:16.845Z,96424.28
2023-05-21T05:50:44.423Z,96658.09
2023-05-21T05:53:13.382Z,96651.47
2023-05-21T05:55:40.931Z,96697.75
2023-05-21T05:58:07.650Z,96689.22
2023-05-21T06:00:34.280Z,96695.63
2023-05-21T06:03:01.063Z,96699.66
2023-05-21T06:05:27.818Z,96690.91
2023-05-21T06:07:54.442Z,96688.09
2023-05-21T06:10:21.165Z,96695.47
2023-05-21T06:12:48.023Z,96702.72
2023-05-21T06:15:19.480Z,96690.97
2023-05-21T06:17:46.263Z,96693.41
2023-05-21T06:20:13.117Z,96662.81
2023-05-21T06:22:39.800Z,96688.75
2023-05-21T06:25:07.203Z,96688.22
2023-05-21T06:27:33.864Z,96602.81
2023-05-21T06:30:00.583Z,96673.66
2023-05-21T06:32:27.342Z,96677.06
2023-05-21T06:34:53.990Z,96663.59
2023-05-21T06:37:21.715Z,96665.81
2023-05-21T06:39:48.417Z,96673.72
2023-05-21T06:42:15.107Z,96640.59
2023-05-21T06:44:42.180Z,96633.75
2023-05-21T06:47:08.773Z,96667.88
2023-05-21T06:49:35.444Z,96660.44
2023-05-21T06:52:02.280Z,96675.63
2023-05-21T06:54:29.037Z,96673.25
2023-05-21T06:56:55.855Z,96680.25
2023-05-21T06:59:22.517Z,96682.03
2023-05-21T07:01:49.280Z,96629.81
2023-05-21T07:04:16.032Z,96678.19
2023-05-21T07:06:42.653Z,96689.34
2023-05-21T07:09:10.269Z,96632.84
2023-05-21T07:11:36.887Z,96687.81
2023-05-21T07:14:04.078Z,96684.69
2023-05-21T07:16:30.770Z,96700.34
2023-05-21T07:18:57.509Z,96707.19
2023-05-21T07:21:24.390Z,96680.91
2023-05-21T07:23:51.018Z,96667.81
2023-05-21T07:26:17.761Z,96688.84
2023-05-21T07:28:45.202Z,96687.56
2023-05-21T07:31:12.469Z,96695.25
2023-05-21T07:33:39.261Z,96699.31
2023-05-21T07:36:06.758Z,96688.81
2023-05-21T07:38:33.577Z,96686.41
2023-05-21T07:41:00.213Z,96689.59
2023-05-21T07:43:26.844Z,96648.25
2023-05-21T07:45:53.509Z,96681.84
2023-05-21T07:48:20.219Z,96674.50
2023-05-21T07:50:49.651Z,96648.81
2023-05-21T07:53:16.384Z,96678.81
2023-05-21T07:55:47.885Z,96693.03
2023-05-21T07:58:17.060Z,96691.78
2023-05-21T08:00:45.344Z,96618.16
2023-05-21T08:03:12.030Z,96647.59
2023-05-21T08:05:39.043Z,96667.38
2023-05-21T08:08:05.847Z,96686.34
2023-05-21T08:10:32.428Z,96655.59
2023-05-21T08:12:59.028Z,96686.13
2023-05-21T08:15:25.701Z,96689.88
2023-05-21T08:17:52.363Z,96682.66
2023-05-21T08:20:20.495Z,96657.28
2023-05-21T08:22:48.366Z,96688.41
2023-05-21T08:25:15.058Z,96688.63
2023-05-21T08:27:42.698Z,96692.00
2023-05-21T08:30:11.536Z,96685.44
2023-05-21T08:32:38.240Z,96694.91
2023-05-21T08:35:06.076Z,96680.41
2023-05-21T08:37:32.912Z,96679.53
2023-05-21T08:39:59.618Z,96681.22
2023-05-21T08:42:45.986Z,96683.44
2023-05-21T08:45:14.586Z,96681.72
2023-05-21T08:47:43.998Z,96676.72
2023-05-21T08:50:13.438Z,96680.72
2023-05-21T08:52:41.241Z,96683.91
2023-05-21T08:55:09.056Z,96662.78
2023-05-21T08:57:36.762Z,96672.94
2023-05-21T09:00:07.165Z,96636.63
2023-05-21T09:02:35.109Z,96668.19
2023-05-21T09:05:03.455Z,96669.25
2023-05-21T09:07:31.785Z,96672.13
2023-05-21T09:10:05.189Z,96669.66
2023-05-21T09:12:32.049Z,96664.72
2023-05-21T09:15:00.337Z,96667.22
2023-05-21T09:17:27.203Z,96665.69
2023-05-21T09:20:16.270Z,96659.56
2023-05-21T09:22:51.467Z,96673.25
2023-05-21T09:25:24.912Z,96659.66
2023-05-21T09:27:51.514Z,96656.78
2023-05-21T09:30:20.865Z,96659.47
2023-05-21T09:32:58.293Z,96648.59
2023-05-21T09:35:25.672Z,96635.09
2023-05-21T09:37:53.523Z,96660.84
2023-05-21T09:40:21.675Z,96653.59
2023-05-21T09:42:50.268Z,96658.47
2023-05-21T09:45:21.544Z,96597.31
2023-05-21T09:47:49.955Z,96606.22
2023-05-21T09:50:21.885Z,96604.47
2023-05-21T09:52:52.795Z,96654.41
2023-05-21T09:55:23.618Z,96632.28
2023-05-21T09:57:51.024Z,96633.50
2023-05-21T10:00:22.412Z,96657.97
2023-05-21T10:02:53.965Z,96663.47
2023-05-21T10:05:21.171Z,96652.16
2023-05-21T10:07:53.640Z,96631.22
2023-05-21T10:10:24.644Z,96651.16
2023-05-21T10:13:12.757Z,96655.97
2023-05-21T10:15:43.945Z,96597.09
2023-05-21T10:18:12.468Z,96653.06
2023-05-21T10:20:40.071Z,96659.06
2023-05-21T10:23:07.699Z,96571.56
2023-05-21T10:25:36.227Z,96650.53
2023-05-21T10:28:03.508Z,96662.22
2023-05-21T10:30:30.210Z,96650.78
2023-05-21T10:32:57.496Z,96657.19
2023-05-21T10:35:24.768Z,96651.22
2023-05-21T10:37:52.992Z,96666.06
2023-05-21T10:40:20.541Z,96671.81
2023-05-21T10:43:21.862Z,96652.47
2023-05-21T10:46:07.529Z,96659.72
2023-05-21T10:48:39.975Z,96661.41
2023-05-21T10:51:25.073Z,96666.59
2023-05-21T10:54:10.544Z,96666.97
2023-05-21T10:57:00.142Z,96664.69
2023-05-21T10:59:49.429Z,96666.69
2023-05-21T11:02:17.911Z,96605.94
2023-05-21T11:04:45.420Z,96653.97
2023-05-21T11:07:13.243Z,96665.09
2023-05-21T11:09:39.945Z,96662.53
2023-05-21T11:12:08.211Z,96622.19
2023-05-21T11:14:40.266Z,96654.06
2023-05-21T11:17:09.696Z,96647.28
2023-05-21T11:19:51.393Z,96649.34
2023-05-21T11:22:22.069Z,96648.31
2023-05-21T11:24:51.117Z,96656.16
2023-05-21T11:27:37.604Z,96601.69
2023-05-21T11:30:17.385Z,96649.69
2023-05-21T11:33:10.101Z,96660.47
2023-05-21T11:35:39.175Z,96655.66
2023-05-21T11:38:09.319Z,96613.69
2023-05-21T11:40:36.438Z,96660.38
2023-05-21T11:43:03.428Z,96660.22
2023-05-21T11:45:32.622Z,96661.13
2023-05-21T11:48:00.692Z,96637.06
2023-05-21T11:50:30.616Z,96678.31
2023-05-21T11:52:57.884Z,96686.19
2023-05-21T11:55:26.068Z,96666.03
2023-05-21T11:57:54.607Z,96665.38
2023-05-21T12:00:21.713Z,96671.03
2023-05-21T12:02:52.497Z,96662.56
2023-05-21T12:05:19.463Z,96599.00
2023-05-21T12:07:48.953Z,96620.56
2023-05-21T12:10:15.863Z,96664.44
2023-05-21T12:12:53.878Z,96656.56
2023-05-21T12:15:22.822Z,96662.91
2023-05-21T12:17:51.140Z,96662.59
2023-05-21T12:20:17.960Z,96592.72
2023-05-21T12:22:44.881Z,96657.97
2023-05-21T12:25:12.398Z,96598.94
2023-05-21T12:27:39.394Z,96664.84
2023-05-21T12:30:06.951Z,96655.69
2023-05-21T12:32:35.035Z,96653.09
2023-05-21T12:35:02.733Z,96654.69
2023-05-21T12:37:32.453Z,96662.22
2023-05-21T12:40:01.442Z,96658.56
2023-05-21T12:42:34.782Z,96685.84
2023-05-21T12:45:06.807Z,96682.38
2023-05-21T12:47:33.805Z,96699.09
2023-05-21T12:50:02.312Z,96692.94
2023-05-21T12:52:30.833Z,96693.84
2023-05-21T12:54:58.670Z,96694.69
2023-05-21T12:57:38.921Z,96690.53
2023-05-21T13:00:07.296Z,96625.75
2023-05-21T13:02:41.144Z,96696.66
2023-05-21T13:05:17.478Z,96635.19
2023-05-21T13:07:46.851Z,96706.03
2023-05-21T13:10:16.532Z,96702.75
2023-05-21T13:12:44.555Z,96641.75
2023-05-21T13:15:12.059Z,96710.41
2023-05-21T13:17:38.938Z,96707.72
2023-05-21T13:20:16.139Z,96711.38
2023-05-21T13:22:52.727Z,96655.53
2023-05-21T13:25:25.058Z,96696.66
2023-05-21T13:27:53.736Z,96707.56
2023-05-21T13:30:21.692Z,96699.69
2023-05-21T13:32:48.814Z,96700.31
2023-05-21T13:35:16.756Z,96656.88
2023-05-21T13:37:44.043Z,96687.84
2023-05-21T13:40:12.507Z,96675.03
2023-05-21T13:42:39.258Z,96656.75
2023-05-21T13:45:11.032Z,96671.69
2023-05-21T13:47:40.284Z,96656.31
2023-05-21T13:50:08.439Z,96651.66
2023-05-21T13:52:35.412Z,96651.84
2023-05-21T13:55:02.205Z,96645.69
2023-05-21T13:57:30.885Z,96629.50
2023-05-21T13:59:58.432Z,96624.34
2023-05-21T14:02:25.472Z,96614.63
2023-05-21T14:04:52.232Z,96622.31
2023-05-21T14:07:19.051Z,96593.94
2023-05-21T14:09:47.490Z,96555.63
2023-05-21T14:12:14.249Z,96619.00
2023-05-21T14:14:41.513Z,96611.91
2023-05-21T14:17:08.212Z,96595.91
2023-05-21T14:19:34.881Z,96610.13
2023-05-21T14:22:01.522Z,96609.63
2023-05-21T14:24:28.208Z,96593.19
2023-05-21T14:26:54.868Z,96562.25
2023-05-21T14:29:21.474Z,96608.41
2023-05-21T14:31:48.604Z,96608.41
2023-05-21T14:34:15.418Z,96599.63
2023-05-21T14:36:42.100Z,96598.38
2023-05-21T14:39:08.697Z,96587.28
2023-05-21T14:41:39.195Z,96590.88
2023-05-21T14:44:05.870Z,96572.16
2023-05-21T14:46:32.671Z,96569.75
2023-05-21T14:49:00.243Z,96534.22
2023-05-21T14:51:26.898Z,96574.09
2023-05-21T14:53:53.592Z,96566.31
2023-05-21T14:56:22.183Z,96533.78
2023-05-21T14:58:49.199Z,96544.75
2023-05-21T15:01:15.927Z,96527.00
2023-05-21T15:03:42.786Z,96557.03
2023-05-21T15:06:09.853Z,96558.84
2023-05-21T15:08:36.508Z,96556.09
2023-05-21T15:11:03.120Z,96526.59
2023-05-21T15:13:29.795Z,96545.00
2023-05-21T15:15:56.617Z,96534.13
2023-05-21T15:18:24.864Z,96537.16
2023-05-21T15:20:51.988Z,96511.16
2023-05-21T15:23:18.792Z,96542.13
2023-05-21T15:25:45.799Z,96483.22
2023-05-21T15:28:12.720Z,96536.47
2023-05-21T15:30:39.754Z,96544.03
2023-05-21T15:33:06.567Z,96533.13
2023-05-21T15:35:35.089Z,96534.84
2023-05-21T15:38:01.939Z,96516.75
2023-05-21T15:40:28.569Z,96527.75
2023-05-21T15:42:55.138Z,96480.84
2023-05-21T15:45:21.858Z,96518.97
2023-05-21T15:47:48.772Z,96528.34
2023-05-21T15:50:15.684Z,96517.22
2023-05-21T15:52:42.734Z,96538.53
2023-05-21T15:55:09.901Z,96497.97
2023-05-21T15:57:36.592Z,96536.81
2023-05-21T16:00:04.931Z,96489.25
2023-05-21T16:02:31.609Z,96541.19
2023-05-21T16:04:58.360Z,96534.72
2023-05-21T16:07:25.069Z,96499.53
2023-05-21T16:09:51.695Z,96520.97
2023-05-21T16:12:18.378Z,96540.53
2023-05-21T16:14:48.454Z,96539.38
2023-05-21T16:17:15.154Z,96541.09
2023-05-21T16:19:41.810Z,96521.91
2023-05-21T16:22:10.643Z,96542.06
2023-05-21T16:24:37.575Z,96543.13
2023-05-21T16:27:05.038Z,96541.22
2023-05-21T16:29:31.952Z,96521.66
2023-05-21T16:31:58.750Z,96548.34
2023-05-21T16:34:25.712Z,96542.66
2023-05-21T16:36:52.495Z,96550.81
2023-05-21T16:39:19.104Z,96567.63
2023-05-21T16:41:45.775Z,96550.13
2023-05-21T16:44:12.375Z,96553.13
2023-05-21T16:46:39.022Z,96549.03
2023-05-21T16:49:05.728Z,96561.75
2023-05-21T16:51:32.425Z,96552.00
2023-05-21T16:53:59.016Z,96559.56
2023-05-21T16:56:27.253Z,96565.44
2023-05-21T16:58:53.842Z,96501.50
2023-05-21T17:01:20.743Z,96529.22
2023-05-21T17:03:47.516Z,96573.88
2023-05-21T17:06:14.966Z,96568.13
2023-05-21T17:08:42.748Z,96504.34
2023-05-21T17:11:09.834Z,96532.94
2023-05-21T17:13:36.612Z,96531.50
2023-05-21T17:16:03.343Z,96579.72
2023-05-21T17:18:31.315Z,96579.63
2023-05-21T17:20:59.132Z,96582.91
2023-05-21T17:23:26.121Z,96589.19
2023-05-21T17:25:52.881Z,96500.50
2023-05-21T17:28:19.827Z,96584.25
2023-05-21T17:30:48.717Z,96573.44
2023-05-21T17:33:16.453Z,96593.81
2023-05-21T17:35:43.175Z,96593.94
2023-05-21T17:38:10.396Z,96599.09
2023-05-21T17:40:37.156Z,96597.09
2023-05-21T17:43:05.094Z,96599.31
2023-05-21T17:45:31.936Z,96599.75
2023-05-21T17:48:00.376Z,96603.66
2023-05-21T17:50:27.270Z,96605.00
2023-05-21T17:52:53.888Z,96613.88
2023-05-21T17:55:20.851Z,96607.16
2023-05-21T17:57:47.440Z,96608.66
2023-05-21T18:00:14.249Z,96619.03
2023-05-21T18:02:41.401Z,96616.06
2023-05-21T18:05:08.666Z,96284.09
2023-05-21T18:07:35.802Z,96606.47
2023-05-21T18:10:02.451Z,96591.25
2023-05-21T18:12:29.149Z,96565.53
2023-05-21T18:14:55.881Z,96619.78
2023-05-21T18:17:22.649Z,96617.44
2023-05-21T18:19:51.001Z,96618.63
2023-05-21T18:22:17.699Z,96620.91
2023-05-21T18:24:44.640Z,96633.75
2023-05-21T18:27:12.409Z,96646.66
2023-05-21T18:29:39.051Z,96637.00
2023-05-21T18:32:06.450Z,96608.47
2023-05-21T18:34:33.400Z,96641.97
2023-05-21T18:37:00.560Z,96647.22
2023-05-21T18:39:28.182Z,96647.19
2023-05-21T18:42:11.312Z,96546.59
2023-05-21T18:44:39.373Z,96635.34
2023-05-21T18:47:07.805Z,96573.19
2023-05-21T18:49:36.226Z,96567.03
2023-05-21T18:52:04.417Z,96649.47
2023-05-21T18:54:31.424Z,96653.41
2023-05-21T18:57:00.855Z,96654.22
2023-05-21T18:59:29.348Z,96612.47
2023-05-21T19:01:56.331Z,96651.34
2023-05-21T19:04:23.112Z,96644.53
2023-05-21T19:06:50.045Z,96598.50
2023-05-21T19:09:17.072Z,96662.88
2023-05-21T19:11:44.089Z,96667.94
2023-05-21T19:14:10.952Z,96655.34
2023-05-21T19:16:37.904Z,96661.38
2023-05-21T19:19:04.904Z,96662.59
2023-05-21T19:21:32.525Z,96666.66
2023-05-21T19:23:59.314Z,96594.47
2023-05-21T19:26:26.107Z,96665.03
2023-05-21T19:28:54.545Z,96663.53
2023-05-21T19:31:22.931Z,96659.44
2023-05-21T19:33:50.085Z,96668.69
2023-05-21T19:36:17.019Z,96667.38
2023-05-21T19:38:50.856Z,96662.47
2023-05-21T19:41:18.782Z,96669.03
2023-05-21T19:43:46.205Z,96665.88
2023-05-21T19:46:17.242Z,96606.59
2023-05-21T19:48:45.971Z,96666.81
2023-05-21T19:51:13.335Z,96675.84
2023-05-21T19:53:40.065Z,96620.13
2023-05-21T19:56:07.732Z,96677.47
2023-05-21T19:58:34.520Z,96679.28
2023-05-21T20:01:01.501Z,96683.88
2023-05-21T20:03:32.219Z,96646.41
2023-05-21T20:05:59.166Z,96680.00
2023-05-21T20:08:25.868Z,96677.03
2023-05-21T20:10:52.613Z,96685.56
2023-05-21T20:13:21.418Z,96690.72
2023-05-21T20:15:48.201Z,96681.09
2023-05-21T20:18:15.662Z,96687.94
2023-05-21T20:20:43.089Z,96685.59
2023-05-21T20:23:09.844Z,96687.16
2023-05-21T20:25:36.582Z,96683.34
2023-05-21T20:28:04.181Z,96698.56
2023-05-21T20:30:36.389Z,96694.16
2023-05-21T20:33:04.111Z,96621.66
2023-05-21T20:35:31.129Z,96652.78
2023-05-21T20:37:57.812Z,96613.50
2023-05-21T20:40:24.698Z,96698.06
2023-05-21T20:42:53.535Z,96690.09
2023-05-21T20:45:21.192Z,96692.03
2023-05-21T20:47:48.269Z,96689.22
2023-05-21T20:50:17.698Z,96653.63
2023-05-21T20:52:47.001Z,96682.81
2023-05-21T20:55:14.782Z,96670.25
2023-05-21T20:57:42.158Z,96692.44
2023-05-21T21:00:11.845Z,96700.72
2023-05-21T21:02:38.881Z,96608.34
2023-05-21T21:05:06.231Z,96629.09
2023-05-21T21:07:34.148Z,96715.16
2023-05-21T21:10:01.478Z,96707.84
2023-05-21T21:12:28.516Z,96717.84
2023-05-21T21:14:55.746Z,96715.72
2023-05-21T21:17:22.663Z,96718.19
2023-05-21T21:19:49.279Z,96711.97
2023-05-21T21:22:16.308Z,96721.41
2023-05-21T21:24:42.932Z,96709.00
2023-05-21T21:27:09.764Z,96704.00
2023-05-21T21:29:36.423Z,96652.91
2023-05-21T21:32:03.146Z,96702.47
2023-05-21T21:34:29.843Z,96703.28
2023-05-21T21:36:56.569Z,96699.25
2023-05-21T21:39:23.227Z,96708.91
2023-05-21T21:41:49.834Z,96707.25
2023-05-21T21:44:16.453Z,96697.44
2023-05-21T21:46:43.081Z,96696.50
2023-05-21T21:49:09.733Z,96709.22
2023-05-21T21:51:37.042Z,96698.09
2023-05-21T21:54:04.171Z,96700.19
2023-05-21T21:56:30.969Z,96699.00
2023-05-21T21:58:57.620Z,96703.88
2023-05-21T22:01:24.292Z,96710.50
2023-05-21T22:03:50.955Z,96654.81
2023-05-21T22:06:17.681Z,96697.25
2023-05-21T22:08:44.480Z,96692.81
2023-05-21T22:11:11.618Z,96689.72
2023-05-21T22:13:38.522Z,96694.34
2023-05-21T22:16:05.506Z,96700.41
2023-05-21T22:18:40.923Z,96620.13
2023-05-21T22:21:10.003Z,96694.28
2023-05-21T22:23:37.671Z,96700.78
2023-05-21T22:26:04.576Z,96692.50
2023-05-21T22:28:31.187Z,96705.66
2023-05-21T22:30:58.618Z,96696.28
2023-05-21T22:33:26.756Z,96711.06
2023-05-21T22:35:54.265Z,96704.69
2023-05-21T22:38:21.002Z,96693.41
2023-05-21T22:40:47.718Z,96695.69
2023-05-21T22:43:14.514Z,96683.22
2023-05-21T22:45:41.174Z,96687.69
2023-05-21T22:48:09.466Z,96695.50
2023-05-21T22:50:38.608Z,96618.31
2023-05-21T22:53:06.242Z,96684.81
2023-05-21T22:55:32.954Z,96683.84
2023-05-21T22:57:59.635Z,96680.47
2023-05-21T23:00:26.657Z,96681.09
2023-05-21T23:02:54.583Z,96676.28
2023-05-21T23:05:21.773Z,96677.13
2023-05-21T23:07:48.482Z,96668.09
2023-05-21T23:10:15.070Z,96664.06
2023-05-21T23:12:41.679Z,96668.81
2023-05-21T23:15:09.983Z,96646.25
2023-05-21T23:17:37.624Z,96671.78
2023-05-21T23:20:05.643Z,96628.81
2023-05-21T23:22:32.400Z,96674.22
2023-05-21T23:24:59.043Z,96669.22
2023-05-21T23:27:25.708Z,96667.63
2023-05-21T23:29:52.374Z,96668.28
2023-05-21T23:32:19.245Z,96605.72
2023-05-21T23:34:45.918Z,96627.53
2023-05-21T23:37:12.719Z,96602.63
2023-05-21T23:39:39.921Z,96670.69
2023-05-21T23:42:06.854Z,96682.53
2023-05-21T23:44:33.515Z,96677.66
2023-05-21T23:47:00.159Z,96664.25
2023-05-21T23:49:26.862Z,96677.03
2023-05-21T23:51:53.741Z,96673.03
2023-05-21T23:54:20.445Z,96671.34
2023-05-21T23:56:47.586Z,96686.19
2023-05-21T23:59:15.678Z,96678.72
